sensor_id;sensor_type;location;lat;lon;timestamp;temperature;humidity
21522;DHT22;10922;45.572;10.002;2022-12-17T00:00:58;5.90;1.00
21522;DHT22;10922;45.572;10.002;2022-12-17T00:03:42;5.90;1.00
21522;DHT22;10922;45.572;10.002;2022-12-17T00:06:26;5.80;1.00
21522;DHT22;10922;45.572;10.002;2022-12-17T00:09:10;5.80;1.00
21522;DHT22;10922;45.572;10.002;2022-12-17T00:11:54;5.70;1.00
21522;DHT22;10922;45.572;10.002;2022-12-17T00:14:39;5.50;1.00
21522;DHT22;10922;45.572;10.002;2022-12-17T00:17:23;5.40;1.00
21522;DHT22;10922;45.572;10.002;2022-12-17T00:20:07;5.40;1.00
21522;DHT22;10922;45.572;10.002;2022-12-17T00:23:03;5.30;1.00
21522;DHT22;10922;45.572;10.002;2022-12-17T00:25:52;5.10;1.00
21522;DHT22;10922;45.572;10.002;2022-12-17T00:28:37;5.00;1.00
21522;DHT22;10922;45.572;10.002;2022-12-17T00:31:21;5.10;1.00
21522;DHT22;10922;45.572;10.002;2022-12-17T00:34:05;5.10;1.00
21522;DHT22;10922;45.572;10.002;2022-12-17T00:36:50;5.00;1.00
21522;DHT22;10922;45.572;10.002;2022-12-17T00:39:34;4.90;1.00
21522;DHT22;10922;45.572;10.002;2022-12-17T00:42:36;4.80;1.00
21522;DHT22;10922;45.572;10.002;2022-12-17T00:45:19;4.70;83.70
21522;DHT22;10922;45.572;10.002;2022-12-17T00:48:04;4.70;1.00
21522;DHT22;10922;45.572;10.002;2022-12-17T00:50:48;4.70;1.00
21522;DHT22;10922;45.572;10.002;2022-12-17T00:53:32;4.70;1.00
21522;DHT22;10922;45.572;10.002;2022-12-17T00:56:16;4.80;1.00
21522;DHT22;10922;45.572;10.002;2022-12-17T00:59:00;4.70;1.00
21522;DHT22;10922;45.572;10.002;2022-12-17T01:01:45;4.70;1.00
21522;DHT22;10922;45.572;10.002;2022-12-17T01:04:28;4.70;1.00
21522;DHT22;10922;45.572;10.002;2022-12-17T01:07:13;4.80;1.00
21522;DHT22;10922;45.572;10.002;2022-12-17T01:09:57;4.80;1.00
21522;DHT22;10922;45.572;10.002;2022-12-17T01:12:41;5.00;1.00
21522;DHT22;10922;45.572;10.002;2022-12-17T01:15:25;5.10;99.90
21522;DHT22;10922;45.572;10.002;2022-12-17T01:18:16;5.10;99.90
21522;DHT22;10922;45.572;10.002;2022-12-17T01:21:00;5.10;14.30
21522;DHT22;10922;45.572;10.002;2022-12-17T01:23:44;5.20;1.00
21522;DHT22;10922;45.572;10.002;2022-12-17T01:26:28;5.30;1.00
21522;DHT22;10922;45.572;10.002;2022-12-17T01:29:15;5.20;1.00
21522;DHT22;10922;45.572;10.002;2022-12-17T01:31:59;5.20;1.00
21522;DHT22;10922;45.572;10.002;2022-12-17T01:34:43;5.20;1.00
21522;DHT22;10922;45.572;10.002;2022-12-17T01:37:28;5.10;1.00
21522;DHT22;10922;45.572;10.002;2022-12-17T01:40:12;5.00;1.00
21522;DHT22;10922;45.572;10.002;2022-12-17T01:42:56;4.90;1.00
21522;DHT22;10922;45.572;10.002;2022-12-17T01:45:43;4.80;99.90
21522;DHT22;10922;45.572;10.002;2022-12-17T01:48:36;4.70;99.90
21522;DHT22;10922;45.572;10.002;2022-12-17T01:51:21;4.70;99.90
21522;DHT22;10922;45.572;10.002;2022-12-17T01:54:06;4.70;1.00
21522;DHT22;10922;45.572;10.002;2022-12-17T01:56:51;4.70;1.00
21522;DHT22;10922;45.572;10.002;2022-12-17T01:59:55;4.70;1.00
21522;DHT22;10922;45.572;10.002;2022-12-17T02:02:41;4.70;1.00
21522;DHT22;10922;45.572;10.002;2022-12-17T02:05:33;4.70;1.00
21522;DHT22;10922;45.572;10.002;2022-12-17T02:11:39;4.60;99.90
21522;DHT22;10922;45.572;10.002;2022-12-17T02:14:56;4.70;99.90
21522;DHT22;10922;45.572;10.002;2022-12-17T02:17:48;4.70;99.90
21522;DHT22;10922;45.572;10.002;2022-12-17T02:20:39;4.80;1.00
21522;DHT22;10922;45.572;10.002;2022-12-17T02:26:45;5.00;1.00
21522;DHT22;10922;45.572;10.002;2022-12-17T02:29:33;4.80;1.00
21522;DHT22;10922;45.572;10.002;2022-12-17T02:32:19;4.80;1.00
21522;DHT22;10922;45.572;10.002;2022-12-17T02:35:09;4.70;1.00
21522;DHT22;10922;45.572;10.002;2022-12-17T02:37:57;4.60;69.00
21522;DHT22;10922;45.572;10.002;2022-12-17T02:40:41;4.60;99.90
21522;DHT22;10922;45.572;10.002;2022-12-17T02:43:27;4.60;1.00
21522;DHT22;10922;45.572;10.002;2022-12-17T02:46:13;4.60;1.00
21522;DHT22;10922;45.572;10.002;2022-12-17T02:48:58;4.60;1.00
21522;DHT22;10922;45.572;10.002;2022-12-17T02:51:44;4.60;1.00
21522;DHT22;10922;45.572;10.002;2022-12-17T02:54:30;4.60;1.00
21522;DHT22;10922;45.572;10.002;2022-12-17T02:57:14;4.60;93.90
21522;DHT22;10922;45.572;10.002;2022-12-17T02:59:59;4.60;1.00
21522;DHT22;10922;45.572;10.002;2022-12-17T03:02:43;4.60;99.90
21522;DHT22;10922;45.572;10.002;2022-12-17T03:05:26;4.60;1.00
21522;DHT22;10922;45.572;10.002;2022-12-17T03:08:10;4.60;99.90
21522;DHT22;10922;45.572;10.002;2022-12-17T03:10:54;4.80;99.90
21522;DHT22;10922;45.572;10.002;2022-12-17T03:13:39;4.80;1.00
21522;DHT22;10922;45.572;10.002;2022-12-17T03:16:23;4.80;1.00
21522;DHT22;10922;45.572;10.002;2022-12-17T03:19:08;4.90;1.00
21522;DHT22;10922;45.572;10.002;2022-12-17T03:21:54;5.10;1.00
21522;DHT22;10922;45.572;10.002;2022-12-17T03:24:38;5.20;99.90
21522;DHT22;10922;45.572;10.002;2022-12-17T03:27:23;5.20;1.00
21522;DHT22;10922;45.572;10.002;2022-12-17T03:30:07;5.20;99.90
21522;DHT22;10922;45.572;10.002;2022-12-17T03:32:53;5.10;1.00
21522;DHT22;10922;45.572;10.002;2022-12-17T03:35:38;5.00;1.00
21522;DHT22;10922;45.572;10.002;2022-12-17T03:38:22;5.00;1.00
21522;DHT22;10922;45.572;10.002;2022-12-17T03:41:06;5.00;1.00
21522;DHT22;10922;45.572;10.002;2022-12-17T03:43:50;4.90;1.00
21522;DHT22;10922;45.572;10.002;2022-12-17T03:46:34;4.90;1.00
21522;DHT22;10922;45.572;10.002;2022-12-17T03:49:18;4.90;1.00
21522;DHT22;10922;45.572;10.002;2022-12-17T03:52:02;4.90;1.00
21522;DHT22;10922;45.572;10.002;2022-12-17T03:54:46;5.00;1.00
21522;DHT22;10922;45.572;10.002;2022-12-17T03:57:30;5.00;99.90
21522;DHT22;10922;45.572;10.002;2022-12-17T04:00:14;5.10;99.90
21522;DHT22;10922;45.572;10.002;2022-12-17T04:02:58;5.30;1.00
21522;DHT22;10922;45.572;10.002;2022-12-17T04:05:43;5.40;99.90
21522;DHT22;10922;45.572;10.002;2022-12-17T04:08:27;5.40;99.90
21522;DHT22;10922;45.572;10.002;2022-12-17T04:11:11;5.30;1.00
21522;DHT22;10922;45.572;10.002;2022-12-17T04:13:55;5.50;1.00
21522;DHT22;10922;45.572;10.002;2022-12-17T04:16:40;5.40;1.00
21522;DHT22;10922;45.572;10.002;2022-12-17T04:19:24;5.40;1.00
21522;DHT22;10922;45.572;10.002;2022-12-17T04:22:08;5.50;1.00
21522;DHT22;10922;45.572;10.002;2022-12-17T04:24:52;5.40;1.00
21522;DHT22;10922;45.572;10.002;2022-12-17T04:27:36;5.50;1.00
21522;DHT22;10922;45.572;10.002;2022-12-17T04:30:20;5.40;1.00
21522;DHT22;10922;45.572;10.002;2022-12-17T04:33:04;5.40;1.00
21522;DHT22;10922;45.572;10.002;2022-12-17T04:35:48;5.30;1.00
21522;DHT22;10922;45.572;10.002;2022-12-17T04:38:32;5.30;1.00
21522;DHT22;10922;45.572;10.002;2022-12-17T04:41:16;5.30;88.40
21522;DHT22;10922;45.572;10.002;2022-12-17T04:44:01;5.30;99.90
21522;DHT22;10922;45.572;10.002;2022-12-17T04:46:45;5.30;99.90
21522;DHT22;10922;45.572;10.002;2022-12-17T04:49:29;5.30;99.90
21522;DHT22;10922;45.572;10.002;2022-12-17T04:52:13;5.30;99.90
21522;DHT22;10922;45.572;10.002;2022-12-17T04:54:57;5.30;99.90
21522;DHT22;10922;45.572;10.002;2022-12-17T04:57:41;5.30;99.90
21522;DHT22;10922;45.572;10.002;2022-12-17T05:00:25;5.30;1.00
21522;DHT22;10922;45.572;10.002;2022-12-17T05:03:13;5.20;1.00
21522;DHT22;10922;45.572;10.002;2022-12-17T05:06:02;5.20;1.00
21522;DHT22;10922;45.572;10.002;2022-12-17T05:08:46;5.30;1.00
21522;DHT22;10922;45.572;10.002;2022-12-17T05:11:31;5.20;99.90
21522;DHT22;10922;45.572;10.002;2022-12-17T05:14:15;5.20;99.90
21522;DHT22;10922;45.572;10.002;2022-12-17T05:16:59;5.20;1.00
21522;DHT22;10922;45.572;10.002;2022-12-17T05:19:43;5.30;1.00
21522;DHT22;10922;45.572;10.002;2022-12-17T05:22:27;5.30;99.90
21522;DHT22;10922;45.572;10.002;2022-12-17T05:25:12;5.20;1.00
21522;DHT22;10922;45.572;10.002;2022-12-17T05:27:56;5.20;99.90
21522;DHT22;10922;45.572;10.002;2022-12-17T05:30:40;5.10;99.90
21522;DHT22;10922;45.572;10.002;2022-12-17T05:33:24;5.10;99.90
21522;DHT22;10922;45.572;10.002;2022-12-17T05:36:09;5.00;99.90
21522;DHT22;10922;45.572;10.002;2022-12-17T05:38:53;5.10;99.90
21522;DHT22;10922;45.572;10.002;2022-12-17T05:41:37;5.10;99.90
21522;DHT22;10922;45.572;10.002;2022-12-17T05:44:21;5.20;99.90
21522;DHT22;10922;45.572;10.002;2022-12-17T05:47:05;5.20;99.90
21522;DHT22;10922;45.572;10.002;2022-12-17T05:49:49;5.10;99.90
21522;DHT22;10922;45.572;10.002;2022-12-17T05:52:34;5.00;99.90
21522;DHT22;10922;45.572;10.002;2022-12-17T05:55:18;4.90;99.90
21522;DHT22;10922;45.572;10.002;2022-12-17T05:58:08;4.70;99.90
21522;DHT22;10922;45.572;10.002;2022-12-17T06:01:00;4.70;99.90
21522;DHT22;10922;45.572;10.002;2022-12-17T06:03:44;4.70;99.90
21522;DHT22;10922;45.572;10.002;2022-12-17T06:06:29;4.60;99.90
21522;DHT22;10922;45.572;10.002;2022-12-17T06:09:13;4.50;99.90
21522;DHT22;10922;45.572;10.002;2022-12-17T06:11:57;4.50;99.90
21522;DHT22;10922;45.572;10.002;2022-12-17T06:14:41;4.50;99.90
21522;DHT22;10922;45.572;10.002;2022-12-17T06:17:25;4.40;99.90
21522;DHT22;10922;45.572;10.002;2022-12-17T06:20:09;4.40;99.90
21522;DHT22;10922;45.572;10.002;2022-12-17T06:23:00;4.40;99.90
21522;DHT22;10922;45.572;10.002;2022-12-17T06:25:45;4.30;99.90
21522;DHT22;10922;45.572;10.002;2022-12-17T06:28:29;4.20;99.90
21522;DHT22;10922;45.572;10.002;2022-12-17T06:31:13;4.20;99.90
21522;DHT22;10922;45.572;10.002;2022-12-17T06:33:57;4.20;99.90
21522;DHT22;10922;45.572;10.002;2022-12-17T06:36:44;4.20;99.90
21522;DHT22;10922;45.572;10.002;2022-12-17T06:39:29;4.20;99.90
21522;DHT22;10922;45.572;10.002;2022-12-17T06:42:13;4.30;99.90
21522;DHT22;10922;45.572;10.002;2022-12-17T06:44:57;4.40;99.90
21522;DHT22;10922;45.572;10.002;2022-12-17T06:47:41;4.30;99.90
21522;DHT22;10922;45.572;10.002;2022-12-17T06:50:25;4.40;99.90
21522;DHT22;10922;45.572;10.002;2022-12-17T06:53:10;4.40;99.90
21522;DHT22;10922;45.572;10.002;2022-12-17T06:55:56;4.50;99.90
21522;DHT22;10922;45.572;10.002;2022-12-17T06:58:40;4.70;99.90
21522;DHT22;10922;45.572;10.002;2022-12-17T07:01:25;4.70;99.90
21522;DHT22;10922;45.572;10.002;2022-12-17T07:04:08;4.50;99.90
21522;DHT22;10922;45.572;10.002;2022-12-17T07:06:53;4.30;99.90
21522;DHT22;10922;45.572;10.002;2022-12-17T07:09:37;4.40;99.90
21522;DHT22;10922;45.572;10.002;2022-12-17T07:12:23;4.30;99.90
21522;DHT22;10922;45.572;10.002;2022-12-17T07:15:07;4.30;99.90
21522;DHT22;10922;45.572;10.002;2022-12-17T07:17:56;4.50;99.90
21522;DHT22;10922;45.572;10.002;2022-12-17T07:20:42;4.50;99.90
21522;DHT22;10922;45.572;10.002;2022-12-17T07:23:27;4.40;99.90
21522;DHT22;10922;45.572;10.002;2022-12-17T07:26:12;4.40;99.90
21522;DHT22;10922;45.572;10.002;2022-12-17T07:28:56;4.40;99.90
21522;DHT22;10922;45.572;10.002;2022-12-17T07:31:40;4.40;99.90
21522;DHT22;10922;45.572;10.002;2022-12-17T07:34:24;4.60;99.90
21522;DHT22;10922;45.572;10.002;2022-12-17T07:37:08;4.60;99.90
21522;DHT22;10922;45.572;10.002;2022-12-17T07:39:52;4.60;99.90
21522;DHT22;10922;45.572;10.002;2022-12-17T07:42:38;4.80;99.90
21522;DHT22;10922;45.572;10.002;2022-12-17T07:45:22;4.90;99.90
21522;DHT22;10922;45.572;10.002;2022-12-17T07:48:06;4.90;99.90
21522;DHT22;10922;45.572;10.002;2022-12-17T07:50:50;4.90;99.90
21522;DHT22;10922;45.572;10.002;2022-12-17T07:53:35;5.10;99.90
21522;DHT22;10922;45.572;10.002;2022-12-17T07:56:19;5.00;99.90
21522;DHT22;10922;45.572;10.002;2022-12-17T07:59:04;5.20;99.90
21522;DHT22;10922;45.572;10.002;2022-12-17T08:01:48;5.30;99.90
21522;DHT22;10922;45.572;10.002;2022-12-17T08:04:33;5.40;99.90
21522;DHT22;10922;45.572;10.002;2022-12-17T08:07:17;5.50;99.90
21522;DHT22;10922;45.572;10.002;2022-12-17T08:10:03;5.50;99.90
21522;DHT22;10922;45.572;10.002;2022-12-17T08:13:04;5.60;99.90
21522;DHT22;10922;45.572;10.002;2022-12-17T08:15:50;5.40;99.90
21522;DHT22;10922;45.572;10.002;2022-12-17T08:18:35;5.60;99.90
21522;DHT22;10922;45.572;10.002;2022-12-17T08:21:19;5.70;99.90
21522;DHT22;10922;45.572;10.002;2022-12-17T08:24:03;5.70;99.90
21522;DHT22;10922;45.572;10.002;2022-12-17T08:26:48;5.80;99.90
21522;DHT22;10922;45.572;10.002;2022-12-17T08:29:32;5.90;99.90
21522;DHT22;10922;45.572;10.002;2022-12-17T08:32:16;5.80;99.90
21522;DHT22;10922;45.572;10.002;2022-12-17T08:35:01;5.90;1.00
21522;DHT22;10922;45.572;10.002;2022-12-17T08:37:45;5.80;99.90
21522;DHT22;10922;45.572;10.002;2022-12-17T08:40:29;5.70;1.00
21522;DHT22;10922;45.572;10.002;2022-12-17T08:43:14;5.80;1.00
21522;DHT22;10922;45.572;10.002;2022-12-17T08:45:58;5.80;99.90
21522;DHT22;10922;45.572;10.002;2022-12-17T08:48:42;5.60;99.90
21522;DHT22;10922;45.572;10.002;2022-12-17T08:51:27;5.70;99.90
21522;DHT22;10922;45.572;10.002;2022-12-17T08:54:11;5.80;99.90
21522;DHT22;10922;45.572;10.002;2022-12-17T08:56:55;5.90;99.90
21522;DHT22;10922;45.572;10.002;2022-12-17T08:59:39;6.10;99.90
21522;DHT22;10922;45.572;10.002;2022-12-17T09:02:23;6.30;99.90
21522;DHT22;10922;45.572;10.002;2022-12-17T09:05:08;6.10;99.90
21522;DHT22;10922;45.572;10.002;2022-12-17T09:08:03;6.20;99.90
21522;DHT22;10922;45.572;10.002;2022-12-17T09:10:48;6.30;99.90
21522;DHT22;10922;45.572;10.002;2022-12-17T09:13:33;6.40;99.90
21522;DHT22;10922;45.572;10.002;2022-12-17T09:16:17;6.60;99.90
21522;DHT22;10922;45.572;10.002;2022-12-17T09:19:02;6.60;99.90
21522;DHT22;10922;45.572;10.002;2022-12-17T09:21:46;6.00;1.00
21522;DHT22;10922;45.572;10.002;2022-12-17T09:24:30;6.10;1.00
21522;DHT22;10922;45.572;10.002;2022-12-17T09:27:14;6.20;1.00
21522;DHT22;10922;45.572;10.002;2022-12-17T09:29:59;6.60;1.00
21522;DHT22;10922;45.572;10.002;2022-12-17T09:32:57;6.80;1.00
21522;DHT22;10922;45.572;10.002;2022-12-17T09:35:41;7.00;1.00
21522;DHT22;10922;45.572;10.002;2022-12-17T09:38:25;6.80;1.00
21522;DHT22;10922;45.572;10.002;2022-12-17T09:41:33;6.80;1.00
21522;DHT22;10922;45.572;10.002;2022-12-17T09:44:28;7.00;1.00
21522;DHT22;10922;45.572;10.002;2022-12-17T09:50:19;7.00;1.00
21522;DHT22;10922;45.572;10.002;2022-12-17T09:53:12;6.90;99.90
21522;DHT22;10922;45.572;10.002;2022-12-17T09:55:57;7.20;1.00
21522;DHT22;10922;45.572;10.002;2022-12-17T09:58:42;7.10;99.90
21522;DHT22;10922;45.572;10.002;2022-12-17T10:01:34;7.30;42.70
21522;DHT22;10922;45.572;10.002;2022-12-17T10:04:43;7.30;99.90
21522;DHT22;10922;45.572;10.002;2022-12-17T10:07:34;7.30;1.00
21522;DHT22;10922;45.572;10.002;2022-12-17T10:10:23;7.30;1.00
21522;DHT22;10922;45.572;10.002;2022-12-17T10:13:20;7.60;99.90
21522;DHT22;10922;45.572;10.002;2022-12-17T10:17:08;7.60;1.00
21522;DHT22;10922;45.572;10.002;2022-12-17T10:19:35;7.50;99.90
21522;DHT22;10922;45.572;10.002;2022-12-17T10:22:20;7.30;1.00
21522;DHT22;10922;45.572;10.002;2022-12-17T10:25:28;7.40;1.00
21522;DHT22;10922;45.572;10.002;2022-12-17T10:28:21;7.50;99.90
21522;DHT22;10922;45.572;10.002;2022-12-17T10:31:13;7.20;1.00
21522;DHT22;10922;45.572;10.002;2022-12-17T10:33:58;7.50;1.00
21522;DHT22;10922;45.572;10.002;2022-12-17T10:36:50;7.00;1.00
21522;DHT22;10922;45.572;10.002;2022-12-17T10:39:35;7.10;99.90
21522;DHT22;10922;45.572;10.002;2022-12-17T10:42:27;6.90;70.80
21522;DHT22;10922;45.572;10.002;2022-12-17T10:45:21;7.00;1.00
21522;DHT22;10922;45.572;10.002;2022-12-17T10:51:24;6.70;1.00
21522;DHT22;10922;45.572;10.002;2022-12-17T10:54:24;6.90;1.00
21522;DHT22;10922;45.572;10.002;2022-12-17T10:57:23;7.00;1.00
21522;DHT22;10922;45.572;10.002;2022-12-17T11:00:29;7.00;1.00
21522;DHT22;10922;45.572;10.002;2022-12-17T11:03:29;6.90;1.00
21522;DHT22;10922;45.572;10.002;2022-12-17T11:06:23;7.30;1.00
21522;DHT22;10922;45.572;10.002;2022-12-17T11:12:18;7.50;1.00
21522;DHT22;10922;45.572;10.002;2022-12-17T11:15:19;7.40;1.00
21522;DHT22;10922;45.572;10.002;2022-12-17T11:18:05;7.60;1.00
21522;DHT22;10922;45.572;10.002;2022-12-17T11:21:01;7.70;1.00
21522;DHT22;10922;45.572;10.002;2022-12-17T11:23:48;7.80;1.00
21522;DHT22;10922;45.572;10.002;2022-12-17T11:26:36;7.60;1.00
21522;DHT22;10922;45.572;10.002;2022-12-17T11:29:22;7.80;1.00
21522;DHT22;10922;45.572;10.002;2022-12-17T11:41:17;8.00;1.00
21522;DHT22;10922;45.572;10.002;2022-12-17T11:47:25;8.00;1.00
21522;DHT22;10922;45.572;10.002;2022-12-17T11:50:27;8.20;1.00
21522;DHT22;10922;45.572;10.002;2022-12-17T11:56:41;8.60;1.00
21522;DHT22;10922;45.572;10.002;2022-12-17T12:00:08;8.70;1.00
21522;DHT22;10922;45.572;10.002;2022-12-17T12:03:27;8.70;1.00
21522;DHT22;10922;45.572;10.002;2022-12-17T12:12:15;9.00;1.00
21522;DHT22;10922;45.572;10.002;2022-12-17T12:15:36;8.90;1.00
21522;DHT22;10922;45.572;10.002;2022-12-17T12:21:38;8.40;1.00
21522;DHT22;10922;45.572;10.002;2022-12-17T12:31:01;8.30;1.00
21522;DHT22;10922;45.572;10.002;2022-12-17T12:34:02;8.50;1.00
21522;DHT22;10922;45.572;10.002;2022-12-17T12:36:48;8.50;1.00
21522;DHT22;10922;45.572;10.002;2022-12-17T12:39:38;8.70;1.00
21522;DHT22;10922;45.572;10.002;2022-12-17T12:42:46;8.70;1.00
21522;DHT22;10922;45.572;10.002;2022-12-17T12:45:51;8.70;1.00
21522;DHT22;10922;45.572;10.002;2022-12-17T12:48:43;8.80;1.00
21522;DHT22;10922;45.572;10.002;2022-12-17T12:51:36;8.80;1.00
21522;DHT22;10922;45.572;10.002;2022-12-17T12:54:47;8.30;1.00
21522;DHT22;10922;45.572;10.002;2022-12-17T13:03:36;8.30;1.00
21522;DHT22;10922;45.572;10.002;2022-12-17T13:11:44;7.90;1.00
21522;DHT22;10922;45.572;10.002;2022-12-17T13:14:15;8.00;1.00
21522;DHT22;10922;45.572;10.002;2022-12-17T13:24:48;7.60;1.00
21522;DHT22;10922;45.572;10.002;2022-12-17T13:30:10;7.30;1.00
21522;DHT22;10922;45.572;10.002;2022-12-17T13:41:26;7.70;1.00
21522;DHT22;10922;45.572;10.002;2022-12-17T13:43:55;7.60;1.00
21522;DHT22;10922;45.572;10.002;2022-12-17T13:46:41;7.70;1.00
21522;DHT22;10922;45.572;10.002;2022-12-17T13:49:22;7.70;1.00
21522;DHT22;10922;45.572;10.002;2022-12-17T13:52:00;7.80;1.00
21522;DHT22;10922;45.572;10.002;2022-12-17T13:54:26;7.70;1.00
21522;DHT22;10922;45.572;10.002;2022-12-17T13:56:52;7.60;1.00
21522;DHT22;10922;45.572;10.002;2022-12-17T13:59:23;7.70;1.00
21522;DHT22;10922;45.572;10.002;2022-12-17T14:01:53;7.50;1.00
21522;DHT22;10922;45.572;10.002;2022-12-17T14:04:24;7.50;1.00
21522;DHT22;10922;45.572;10.002;2022-12-17T14:06:52;7.50;1.00
21522;DHT22;10922;45.572;10.002;2022-12-17T14:09:21;7.60;1.00
21522;DHT22;10922;45.572;10.002;2022-12-17T14:11:48;7.60;1.00
21522;DHT22;10922;45.572;10.002;2022-12-17T14:14:41;7.50;1.00
21522;DHT22;10922;45.572;10.002;2022-12-17T14:17:19;7.60;1.00
21522;DHT22;10922;45.572;10.002;2022-12-17T14:19:45;7.60;1.00
21522;DHT22;10922;45.572;10.002;2022-12-17T14:25:42;7.70;1.00
21522;DHT22;10922;45.572;10.002;2022-12-17T14:30:46;7.60;1.00
21522;DHT22;10922;45.572;10.002;2022-12-17T14:33:30;7.60;1.00
21522;DHT22;10922;45.572;10.002;2022-12-17T14:36:06;7.80;1.00
21522;DHT22;10922;45.572;10.002;2022-12-17T14:38:34;7.70;1.00
21522;DHT22;10922;45.572;10.002;2022-12-17T14:41:07;7.70;1.00
21522;DHT22;10922;45.572;10.002;2022-12-17T14:43:55;7.80;1.00
21522;DHT22;10922;45.572;10.002;2022-12-17T14:46:22;7.60;1.00
21522;DHT22;10922;45.572;10.002;2022-12-17T14:48:59;7.70;1.00
21522;DHT22;10922;45.572;10.002;2022-12-17T14:51:37;7.90;1.00
21522;DHT22;10922;45.572;10.002;2022-12-17T14:56:51;7.80;1.00
21522;DHT22;10922;45.572;10.002;2022-12-17T14:59:31;7.90;1.00
21522;DHT22;10922;45.572;10.002;2022-12-17T15:02:07;7.90;1.00
21522;DHT22;10922;45.572;10.002;2022-12-17T15:04:37;7.90;1.00
21522;DHT22;10922;45.572;10.002;2022-12-17T15:07:04;7.80;1.00
21522;DHT22;10922;45.572;10.002;2022-12-17T15:09:37;7.80;1.00
21522;DHT22;10922;45.572;10.002;2022-12-17T15:12:03;7.90;1.00
21522;DHT22;10922;45.572;10.002;2022-12-17T15:14:29;7.90;1.00
21522;DHT22;10922;45.572;10.002;2022-12-17T15:16:55;7.90;1.00
21522;DHT22;10922;45.572;10.002;2022-12-17T15:19:23;7.80;1.00
21522;DHT22;10922;45.572;10.002;2022-12-17T15:21:49;7.80;1.00
21522;DHT22;10922;45.572;10.002;2022-12-17T15:24:18;7.70;1.00
21522;DHT22;10922;45.572;10.002;2022-12-17T15:26:45;7.80;1.00
21522;DHT22;10922;45.572;10.002;2022-12-17T15:29:11;7.70;1.00
21522;DHT22;10922;45.572;10.002;2022-12-17T15:31:36;7.60;1.00
21522;DHT22;10922;45.572;10.002;2022-12-17T15:34:02;7.60;1.00
21522;DHT22;10922;45.572;10.002;2022-12-17T15:36:29;7.60;1.00
21522;DHT22;10922;45.572;10.002;2022-12-17T15:38:56;7.60;1.00
21522;DHT22;10922;45.572;10.002;2022-12-17T15:41:22;7.70;1.00
21522;DHT22;10922;45.572;10.002;2022-12-17T15:44:07;7.70;1.00
21522;DHT22;10922;45.572;10.002;2022-12-17T15:46:33;7.70;1.00
21522;DHT22;10922;45.572;10.002;2022-12-17T15:48:59;7.70;1.00
21522;DHT22;10922;45.572;10.002;2022-12-17T15:51:25;7.80;1.00
21522;DHT22;10922;45.572;10.002;2022-12-17T15:53:50;7.70;1.00
21522;DHT22;10922;45.572;10.002;2022-12-17T15:56:23;7.70;1.00
21522;DHT22;10922;45.572;10.002;2022-12-17T15:58:49;7.80;1.00
21522;DHT22;10922;45.572;10.002;2022-12-17T16:01:16;7.70;1.00
21522;DHT22;10922;45.572;10.002;2022-12-17T16:03:42;7.60;1.00
21522;DHT22;10922;45.572;10.002;2022-12-17T16:06:07;7.60;1.00
21522;DHT22;10922;45.572;10.002;2022-12-17T16:08:33;7.40;1.00
21522;DHT22;10922;45.572;10.002;2022-12-17T16:11:07;7.30;1.00
21522;DHT22;10922;45.572;10.002;2022-12-17T16:13:34;7.10;1.00
21522;DHT22;10922;45.572;10.002;2022-12-17T16:16:00;7.10;1.00
21522;DHT22;10922;45.572;10.002;2022-12-17T16:18:25;7.10;1.00
21522;DHT22;10922;45.572;10.002;2022-12-17T16:20:54;7.10;1.00
21522;DHT22;10922;45.572;10.002;2022-12-17T16:23:25;7.20;1.00
21522;DHT22;10922;45.572;10.002;2022-12-17T16:25:55;7.20;1.00
21522;DHT22;10922;45.572;10.002;2022-12-17T16:28:22;7.20;1.00
21522;DHT22;10922;45.572;10.002;2022-12-17T16:30:58;7.20;1.00
21522;DHT22;10922;45.572;10.002;2022-12-17T16:33:24;7.20;1.00
21522;DHT22;10922;45.572;10.002;2022-12-17T16:35:51;7.10;1.00
21522;DHT22;10922;45.572;10.002;2022-12-17T16:38:17;7.00;1.00
21522;DHT22;10922;45.572;10.002;2022-12-17T16:40:42;6.90;1.00
21522;DHT22;10922;45.572;10.002;2022-12-17T16:43:08;6.80;1.00
21522;DHT22;10922;45.572;10.002;2022-12-17T16:45:34;6.60;1.00
21522;DHT22;10922;45.572;10.002;2022-12-17T16:48:00;6.60;1.00
21522;DHT22;10922;45.572;10.002;2022-12-17T16:50:26;6.60;1.00
21522;DHT22;10922;45.572;10.002;2022-12-17T16:52:54;6.50;1.00
21522;DHT22;10922;45.572;10.002;2022-12-17T16:55:20;6.50;1.00
21522;DHT22;10922;45.572;10.002;2022-12-17T16:57:46;6.50;1.00
21522;DHT22;10922;45.572;10.002;2022-12-17T17:00:12;6.50;1.00
21522;DHT22;10922;45.572;10.002;2022-12-17T17:02:37;6.40;1.00
21522;DHT22;10922;45.572;10.002;2022-12-17T17:05:03;6.40;1.00
21522;DHT22;10922;45.572;10.002;2022-12-17T17:07:29;6.40;1.00
21522;DHT22;10922;45.572;10.002;2022-12-17T17:09:55;6.40;1.00
21522;DHT22;10922;45.572;10.002;2022-12-17T17:12:22;6.50;1.00
21522;DHT22;10922;45.572;10.002;2022-12-17T17:14:47;6.50;1.00
21522;DHT22;10922;45.572;10.002;2022-12-17T17:17:13;6.50;1.00
21522;DHT22;10922;45.572;10.002;2022-12-17T17:19:39;6.40;1.00
21522;DHT22;10922;45.572;10.002;2022-12-17T17:22:04;6.40;1.00
21522;DHT22;10922;45.572;10.002;2022-12-17T17:24:30;6.50;1.00
21522;DHT22;10922;45.572;10.002;2022-12-17T17:26:56;6.60;1.00
21522;DHT22;10922;45.572;10.002;2022-12-17T17:29:21;6.60;1.00
21522;DHT22;10922;45.572;10.002;2022-12-17T17:31:47;6.70;1.00
21522;DHT22;10922;45.572;10.002;2022-12-17T17:34:14;6.80;1.00
21522;DHT22;10922;45.572;10.002;2022-12-17T17:36:42;7.00;1.00
21522;DHT22;10922;45.572;10.002;2022-12-17T17:39:11;7.00;1.00
21522;DHT22;10922;45.572;10.002;2022-12-17T17:41:37;7.10;1.00
21522;DHT22;10922;45.572;10.002;2022-12-17T17:44:11;7.10;1.00
21522;DHT22;10922;45.572;10.002;2022-12-17T17:46:38;7.20;1.00
21522;DHT22;10922;45.572;10.002;2022-12-17T17:49:05;7.20;1.00
21522;DHT22;10922;45.572;10.002;2022-12-17T17:51:33;7.30;1.00
21522;DHT22;10922;45.572;10.002;2022-12-17T17:54:00;7.30;1.00
21522;DHT22;10922;45.572;10.002;2022-12-17T17:56:28;7.30;1.00
21522;DHT22;10922;45.572;10.002;2022-12-17T17:59:00;7.40;1.00
21522;DHT22;10922;45.572;10.002;2022-12-17T18:01:30;7.20;1.00
21522;DHT22;10922;45.572;10.002;2022-12-17T18:03:57;7.20;1.00
21522;DHT22;10922;45.572;10.002;2022-12-17T18:06:24;7.30;1.00
21522;DHT22;10922;45.572;10.002;2022-12-17T18:08:51;7.30;1.00
21522;DHT22;10922;45.572;10.002;2022-12-17T18:11:19;7.30;1.00
21522;DHT22;10922;45.572;10.002;2022-12-17T18:13:45;7.30;1.00
21522;DHT22;10922;45.572;10.002;2022-12-17T18:19:05;7.40;1.00
21522;DHT22;10922;45.572;10.002;2022-12-17T18:21:31;7.40;1.00
21522;DHT22;10922;45.572;10.002;2022-12-17T18:24:02;7.40;1.00
21522;DHT22;10922;45.572;10.002;2022-12-17T18:26:33;7.50;1.00
21522;DHT22;10922;45.572;10.002;2022-12-17T18:29:24;7.40;1.00
21522;DHT22;10922;45.572;10.002;2022-12-17T18:31:54;7.40;1.00
21522;DHT22;10922;45.572;10.002;2022-12-17T18:34:22;7.50;1.00
21522;DHT22;10922;45.572;10.002;2022-12-17T18:36:50;7.50;1.00
21522;DHT22;10922;45.572;10.002;2022-12-17T18:39:21;7.50;1.00
21522;DHT22;10922;45.572;10.002;2022-12-17T18:41:49;7.50;1.00